sensor_id;sensor_type;location;lat;lon;timestamp;P1;durP1;ratioP1;P2;durP2;ratioP2
12122;SDS011;6125;59.628;17.852;2024-01-27T00:01:07;2.43;;;2.10;;
12122;SDS011;6125;59.628;17.852;2024-01-27T00:03:33;2.27;;;2.07;;
12122;SDS011;6125;59.628;17.852;2024-01-27T00:06:00;2.30;;;1.87;;
12122;SDS011;6125;59.628;17.852;2024-01-27T00:08:29;3.23;;;2.33;;
12122;SDS011;6125;59.628;17.852;2024-01-27T00:10:56;2.07;;;1.87;;
12122;SDS011;6125;59.628;17.852;2024-01-27T00:13:23;2.60;;;2.17;;
12122;SDS011;6125;59.628;17.852;2024-01-27T00:15:50;3.53;;;2.10;;
12122;SDS011;6125;59.628;17.852;2024-01-27T00:18:19;2.40;;;1.90;;
12122;SDS011;6125;59.628;17.852;2024-01-27T00:20:46;2.23;;;1.93;;
12122;SDS011;6125;59.628;17.852;2024-01-27T00:23:13;2.60;;;2.10;;
12122;SDS011;6125;59.628;17.852;2024-01-27T00:25:41;2.30;;;2.03;;
12122;SDS011;6125;59.628;17.852;2024-01-27T00:28:08;3.50;;;2.37;;
12122;SDS011;6125;59.628;17.852;2024-01-27T00:30:35;3.43;;;2.47;;
12122;SDS011;6125;59.628;17.852;2024-01-27T00:33:02;2.47;;;2.20;;
12122;SDS011;6125;59.628;17.852;2024-01-27T00:35:29;2.90;;;2.50;;
12122;SDS011;6125;59.628;17.852;2024-01-27T00:37:57;3.77;;;2.70;;
12122;SDS011;6125;59.628;17.852;2024-01-27T00:40:24;3.00;;;2.57;;
12122;SDS011;6125;59.628;17.852;2024-01-27T00:42:52;1.83;;;1.73;;
12122;SDS011;6125;59.628;17.852;2024-01-27T00:45:20;2.53;;;1.80;;
12122;SDS011;6125;59.628;17.852;2024-01-27T00:47:47;2.37;;;2.07;;
12122;SDS011;6125;59.628;17.852;2024-01-27T00:50:15;2.20;;;1.90;;
12122;SDS011;6125;59.628;17.852;2024-01-27T00:52:42;2.73;;;1.90;;
12122;SDS011;6125;59.628;17.852;2024-01-27T00:55:09;2.07;;;1.67;;
12122;SDS011;6125;59.628;17.852;2024-01-27T00:57:36;3.83;;;2.73;;
12122;SDS011;6125;59.628;17.852;2024-01-27T01:00:06;2.70;;;2.10;;
12122;SDS011;6125;59.628;17.852;2024-01-27T01:02:34;2.57;;;2.37;;
12122;SDS011;6125;59.628;17.852;2024-01-27T01:05:02;3.40;;;2.10;;
12122;SDS011;6125;59.628;17.852;2024-01-27T01:07:30;2.40;;;1.80;;
12122;SDS011;6125;59.628;17.852;2024-01-27T01:09:57;2.40;;;2.07;;
12122;SDS011;6125;59.628;17.852;2024-01-27T01:12:25;1.73;;;1.60;;
12122;SDS011;6125;59.628;17.852;2024-01-27T01:14:52;2.00;;;1.73;;
12122;SDS011;6125;59.628;17.852;2024-01-27T01:17:21;3.20;;;2.03;;
12122;SDS011;6125;59.628;17.852;2024-01-27T01:19:48;2.80;;;2.00;;
12122;SDS011;6125;59.628;17.852;2024-01-27T01:22:15;2.40;;;2.20;;
12122;SDS011;6125;59.628;17.852;2024-01-27T01:24:42;3.37;;;2.07;;
12122;SDS011;6125;59.628;17.852;2024-01-27T01:27:09;2.53;;;2.00;;
12122;SDS011;6125;59.628;17.852;2024-01-27T01:29:36;2.93;;;1.83;;
12122;SDS011;6125;59.628;17.852;2024-01-27T01:32:03;2.20;;;1.70;;
12122;SDS011;6125;59.628;17.852;2024-01-27T01:34:32;2.10;;;1.90;;
12122;SDS011;6125;59.628;17.852;2024-01-27T01:36:59;2.37;;;1.80;;
12122;SDS011;6125;59.628;17.852;2024-01-27T01:39:27;2.13;;;1.93;;
12122;SDS011;6125;59.628;17.852;2024-01-27T01:41:54;1.67;;;1.57;;
12122;SDS011;6125;59.628;17.852;2024-01-27T01:44:21;2.40;;;2.00;;
12122;SDS011;6125;59.628;17.852;2024-01-27T01:46:48;2.27;;;2.00;;
12122;SDS011;6125;59.628;17.852;2024-01-27T01:49:15;2.00;;;1.80;;
12122;SDS011;6125;59.628;17.852;2024-01-27T01:51:43;2.60;;;1.90;;
12122;SDS011;6125;59.628;17.852;2024-01-27T01:54:10;2.00;;;1.70;;
12122;SDS011;6125;59.628;17.852;2024-01-27T01:56:38;1.60;;;1.50;;
12122;SDS011;6125;59.628;17.852;2024-01-27T01:59:05;2.30;;;1.70;;
12122;SDS011;6125;59.628;17.852;2024-01-27T02:01:32;2.47;;;1.63;;
12122;SDS011;6125;59.628;17.852;2024-01-27T02:03:59;1.90;;;1.70;;
12122;SDS011;6125;59.628;17.852;2024-01-27T02:06:26;2.30;;;1.70;;
12122;SDS011;6125;59.628;17.852;2024-01-27T02:08:54;1.83;;;1.70;;
12122;SDS011;6125;59.628;17.852;2024-01-27T02:11:21;1.87;;;1.70;;
12122;SDS011;6125;59.628;17.852;2024-01-27T02:13:48;1.87;;;1.67;;
12122;SDS011;6125;59.628;17.852;2024-01-27T02:16:15;2.10;;;1.70;;
12122;SDS011;6125;59.628;17.852;2024-01-27T02:18:43;1.90;;;1.70;;
12122;SDS011;6125;59.628;17.852;2024-01-27T02:21:10;2.23;;;2.03;;
12122;SDS011;6125;59.628;17.852;2024-01-27T02:23:36;2.33;;;1.83;;
12122;SDS011;6125;59.628;17.852;2024-01-27T02:26:05;2.30;;;2.00;;
12122;SDS011;6125;59.628;17.852;2024-01-27T02:28:32;2.93;;;2.27;;
12122;SDS011;6125;59.628;17.852;2024-01-27T02:31:00;2.33;;;2.00;;
12122;SDS011;6125;59.628;17.852;2024-01-27T02:33:27;2.57;;;2.27;;
12122;SDS011;6125;59.628;17.852;2024-01-27T02:35:54;4.50;;;2.17;;
12122;SDS011;6125;59.628;17.852;2024-01-27T02:38:21;2.77;;;2.20;;
12122;SDS011;6125;59.628;17.852;2024-01-27T02:40:48;3.30;;;2.17;;
12122;SDS011;6125;59.628;17.852;2024-01-27T02:43:17;3.70;;;2.40;;
12122;SDS011;6125;59.628;17.852;2024-01-27T02:45:43;2.93;;;2.00;;
12122;SDS011;6125;59.628;17.852;2024-01-27T02:48:10;2.57;;;2.10;;
12122;SDS011;6125;59.628;17.852;2024-01-27T02:50:37;2.23;;;1.80;;
12122;SDS011;6125;59.628;17.852;2024-01-27T02:53:04;2.30;;;1.90;;
12122;SDS011;6125;59.628;17.852;2024-01-27T02:55:31;2.30;;;2.10;;
12122;SDS011;6125;59.628;17.852;2024-01-27T02:57:58;2.50;;;2.00;;
12122;SDS011;6125;59.628;17.852;2024-01-27T03:00:26;2.13;;;1.90;;
12122;SDS011;6125;59.628;17.852;2024-01-27T03:02:53;2.00;;;1.77;;
12122;SDS011;6125;59.628;17.852;2024-01-27T03:05:22;2.10;;;1.60;;
12122;SDS011;6125;59.628;17.852;2024-01-27T03:07:49;1.70;;;1.40;;
12122;SDS011;6125;59.628;17.852;2024-01-27T03:10:16;2.80;;;1.50;;
12122;SDS011;6125;59.628;17.852;2024-01-27T03:12:43;2.17;;;1.87;;
12122;SDS011;6125;59.628;17.852;2024-01-27T03:15:10;3.07;;;1.70;;
12122;SDS011;6125;59.628;17.852;2024-01-27T03:17:38;1.93;;;1.57;;
12122;SDS011;6125;59.628;17.852;2024-01-27T03:20:05;2.03;;;1.53;;
12122;SDS011;6125;59.628;17.852;2024-01-27T03:22:34;2.03;;;1.83;;
12122;SDS011;6125;59.628;17.852;2024-01-27T03:25:01;1.97;;;1.70;;
12122;SDS011;6125;59.628;17.852;2024-01-27T03:27:28;4.43;;;1.77;;
12122;SDS011;6125;59.628;17.852;2024-01-27T03:29:58;1.77;;;1.67;;
12122;SDS011;6125;59.628;17.852;2024-01-27T03:32:26;2.17;;;1.60;;
12122;SDS011;6125;59.628;17.852;2024-01-27T03:34:55;1.43;;;1.33;;
12122;SDS011;6125;59.628;17.852;2024-01-27T03:37:22;1.47;;;1.37;;
12122;SDS011;6125;59.628;17.852;2024-01-27T03:39:49;1.60;;;1.50;;
12122;SDS011;6125;59.628;17.852;2024-01-27T03:42:15;1.77;;;1.27;;
12122;SDS011;6125;59.628;17.852;2024-01-27T03:44:42;1.60;;;1.40;;
12122;SDS011;6125;59.628;17.852;2024-01-27T03:47:09;1.53;;;1.43;;
12122;SDS011;6125;59.628;17.852;2024-01-27T03:49:36;1.60;;;1.50;;
12122;SDS011;6125;59.628;17.852;2024-01-27T03:52:05;1.60;;;1.50;;
12122;SDS011;6125;59.628;17.852;2024-01-27T03:54:32;1.67;;;1.57;;
12122;SDS011;6125;59.628;17.852;2024-01-27T03:56:59;1.47;;;1.37;;
12122;SDS011;6125;59.628;17.852;2024-01-27T03:59:32;1.70;;;1.50;;
12122;SDS011;6125;59.628;17.852;2024-01-27T04:02:06;1.80;;;1.50;;
12122;SDS011;6125;59.628;17.852;2024-01-27T04:04:33;1.57;;;1.47;;
12122;SDS011;6125;59.628;17.852;2024-01-27T04:07:00;1.77;;;1.67;;
12122;SDS011;6125;59.628;17.852;2024-01-27T04:09:28;1.77;;;1.50;;
12122;SDS011;6125;59.628;17.852;2024-01-27T04:11:55;1.80;;;1.60;;
12122;SDS011;6125;59.628;17.852;2024-01-27T04:14:22;1.53;;;1.43;;
12122;SDS011;6125;59.628;17.852;2024-01-27T04:16:49;1.23;;;1.13;;
12122;SDS011;6125;59.628;17.852;2024-01-27T04:19:16;1.33;;;1.23;;
12122;SDS011;6125;59.628;17.852;2024-01-27T04:21:43;1.33;;;1.23;;
12122;SDS011;6125;59.628;17.852;2024-01-27T04:24:10;1.63;;;1.30;;
12122;SDS011;6125;59.628;17.852;2024-01-27T04:26:38;1.50;;;1.40;;
12122;SDS011;6125;59.628;17.852;2024-01-27T04:29:05;1.13;;;1.03;;
12122;SDS011;6125;59.628;17.852;2024-01-27T04:31:33;1.37;;;1.27;;
12122;SDS011;6125;59.628;17.852;2024-01-27T04:34:00;1.40;;;1.30;;
12122;SDS011;6125;59.628;17.852;2024-01-27T04:36:27;1.17;;;1.07;;
12122;SDS011;6125;59.628;17.852;2024-01-27T04:38:55;1.10;;;1.10;;
12122;SDS011;6125;59.628;17.852;2024-01-27T04:41:22;1.13;;;1.03;;
12122;SDS011;6125;59.628;17.852;2024-01-27T04:43:50;1.00;;;1.00;;
12122;SDS011;6125;59.628;17.852;2024-01-27T04:46:18;1.20;;;1.10;;
12122;SDS011;6125;59.628;17.852;2024-01-27T04:48:45;1.23;;;1.13;;
12122;SDS011;6125;59.628;17.852;2024-01-27T04:51:12;1.47;;;1.30;;
12122;SDS011;6125;59.628;17.852;2024-01-27T04:53:39;1.30;;;1.20;;
12122;SDS011;6125;59.628;17.852;2024-01-27T04:56:06;1.20;;;1.10;;
12122;SDS011;6125;59.628;17.852;2024-01-27T04:58:34;2.63;;;1.10;;
12122;SDS011;6125;59.628;17.852;2024-01-27T05:01:03;2.10;;;1.50;;
12122;SDS011;6125;59.628;17.852;2024-01-27T05:03:31;1.20;;;1.10;;
12122;SDS011;6125;59.628;17.852;2024-01-27T05:05:58;1.20;;;1.00;;
12122;SDS011;6125;59.628;17.852;2024-01-27T05:08:25;1.43;;;1.33;;
12122;SDS011;6125;59.628;17.852;2024-01-27T05:10:52;3.00;;;1.20;;
12122;SDS011;6125;59.628;17.852;2024-01-27T05:13:19;1.10;;;1.00;;
12122;SDS011;6125;59.628;17.852;2024-01-27T05:15:46;1.43;;;1.33;;
12122;SDS011;6125;59.628;17.852;2024-01-27T05:18:15;1.30;;;0.97;;
12122;SDS011;6125;59.628;17.852;2024-01-27T05:20:42;1.00;;;1.00;;
12122;SDS011;6125;59.628;17.852;2024-01-27T05:23:09;1.27;;;1.17;;
12122;SDS011;6125;59.628;17.852;2024-01-27T05:25:36;1.20;;;1.10;;
12122;SDS011;6125;59.628;17.852;2024-01-27T05:28:04;1.20;;;1.10;;
12122;SDS011;6125;59.628;17.852;2024-01-27T05:30:31;1.33;;;1.10;;
12122;SDS011;6125;59.628;17.852;2024-01-27T05:32:58;0.90;;;0.90;;
12122;SDS011;6125;59.628;17.852;2024-01-27T05:35:26;1.13;;;1.03;;
12122;SDS011;6125;59.628;17.852;2024-01-27T05:37:53;1.50;;;1.00;;
12122;SDS011;6125;59.628;17.852;2024-01-27T05:40:20;1.40;;;1.23;;
12122;SDS011;6125;59.628;17.852;2024-01-27T05:42:47;1.23;;;0.90;;
12122;SDS011;6125;59.628;17.852;2024-01-27T05:45:14;1.30;;;0.97;;
12122;SDS011;6125;59.628;17.852;2024-01-27T05:47:41;2.20;;;1.10;;
12122;SDS011;6125;59.628;17.852;2024-01-27T05:50:08;1.33;;;1.23;;
12122;SDS011;6125;59.628;17.852;2024-01-27T05:52:37;1.23;;;1.10;;
12122;SDS011;6125;59.628;17.852;2024-01-27T05:55:04;1.77;;;1.37;;
12122;SDS011;6125;59.628;17.852;2024-01-27T05:57:32;1.90;;;1.20;;
12122;SDS011;6125;59.628;17.852;2024-01-27T05:59:59;1.60;;;1.50;;
12122;SDS011;6125;59.628;17.852;2024-01-27T06:02:26;1.57;;;1.33;;
12122;SDS011;6125;59.628;17.852;2024-01-27T06:04:53;1.63;;;1.20;;
12122;SDS011;6125;59.628;17.852;2024-01-27T06:07:19;1.30;;;1.20;;
12122;SDS011;6125;59.628;17.852;2024-01-27T06:09:48;2.13;;;1.30;;
12122;SDS011;6125;59.628;17.852;2024-01-27T06:12:15;1.53;;;1.20;;
12122;SDS011;6125;59.628;17.852;2024-01-27T06:14:42;1.30;;;1.20;;
12122;SDS011;6125;59.628;17.852;2024-01-27T06:17:09;3.07;;;1.70;;
12122;SDS011;6125;59.628;17.852;2024-01-27T06:19:35;3.37;;;2.10;;
12122;SDS011;6125;59.628;17.852;2024-01-27T06:22:03;4.80;;;3.43;;
12122;SDS011;6125;59.628;17.852;2024-01-27T06:24:30;3.53;;;1.70;;
12122;SDS011;6125;59.628;17.852;2024-01-27T06:26:58;1.47;;;1.13;;
12122;SDS011;6125;59.628;17.852;2024-01-27T06:29:25;1.30;;;1.20;;
12122;SDS011;6125;59.628;17.852;2024-01-27T06:31:54;1.50;;;1.00;;
12122;SDS011;6125;59.628;17.852;2024-01-27T06:34:21;2.23;;;1.00;;
12122;SDS011;6125;59.628;17.852;2024-01-27T06:36:48;1.53;;;1.30;;
12122;SDS011;6125;59.628;17.852;2024-01-27T06:39:15;1.63;;;1.13;;
12122;SDS011;6125;59.628;17.852;2024-01-27T06:41:42;0.80;;;0.80;;
12122;SDS011;6125;59.628;17.852;2024-01-27T06:44:10;1.83;;;1.13;;
12122;SDS011;6125;59.628;17.852;2024-01-27T06:46:37;1.17;;;1.10;;
12122;SDS011;6125;59.628;17.852;2024-01-27T06:49:04;1.53;;;1.40;;
12122;SDS011;6125;59.628;17.852;2024-01-27T06:51:31;1.27;;;1.10;;
12122;SDS011;6125;59.628;17.852;2024-01-27T06:53:58;1.70;;;1.20;;
12122;SDS011;6125;59.628;17.852;2024-01-27T06:56:25;2.57;;;2.37;;
12122;SDS011;6125;59.628;17.852;2024-01-27T06:58:52;1.50;;;1.40;;
12122;SDS011;6125;59.628;17.852;2024-01-27T07:01:20;1.40;;;1.30;;
12122;SDS011;6125;59.628;17.852;2024-01-27T07:03:47;3.33;;;1.40;;
12122;SDS011;6125;59.628;17.852;2024-01-27T07:06:14;2.50;;;1.43;;
12122;SDS011;6125;59.628;17.852;2024-01-27T07:08:41;2.07;;;1.40;;
12122;SDS011;6125;59.628;17.852;2024-01-27T07:11:08;2.37;;;1.30;;
12122;SDS011;6125;59.628;17.852;2024-01-27T07:13:35;1.40;;;1.30;;
12122;SDS011;6125;59.628;17.852;2024-01-27T07:16:02;1.53;;;1.10;;
12122;SDS011;6125;59.628;17.852;2024-01-27T07:18:31;2.23;;;1.40;;
12122;SDS011;6125;59.628;17.852;2024-01-27T07:21:00;1.60;;;1.13;;
12122;SDS011;6125;59.628;17.852;2024-01-27T07:23:27;1.97;;;1.13;;
12122;SDS011;6125;59.628;17.852;2024-01-27T07:25:54;4.23;;;1.60;;
12122;SDS011;6125;59.628;17.852;2024-01-27T07:28:22;2.30;;;1.30;;
12122;SDS011;6125;59.628;17.852;2024-01-27T07:30:49;2.57;;;1.53;;
12122;SDS011;6125;59.628;17.852;2024-01-27T07:33:16;2.97;;;1.40;;
12122;SDS011;6125;59.628;17.852;2024-01-27T07:35:44;4.30;;;1.50;;
12122;SDS011;6125;59.628;17.852;2024-01-27T07:38:11;2.07;;;1.20;;
12122;SDS011;6125;59.628;17.852;2024-01-27T07:40:38;7.03;;;1.20;;
12122;SDS011;6125;59.628;17.852;2024-01-27T07:43:07;1.13;;;1.03;;
12122;SDS011;6125;59.628;17.852;2024-01-27T07:45:34;2.50;;;1.13;;
12122;SDS011;6125;59.628;17.852;2024-01-27T07:48:01;2.40;;;1.10;;
12122;SDS011;6125;59.628;17.852;2024-01-27T07:50:28;3.30;;;1.23;;
12122;SDS011;6125;59.628;17.852;2024-01-27T07:52:57;3.93;;;1.40;;
12122;SDS011;6125;59.628;17.852;2024-01-27T07:55:24;5.00;;;1.53;;
12122;SDS011;6125;59.628;17.852;2024-01-27T07:57:51;3.63;;;1.27;;
12122;SDS011;6125;59.628;17.852;2024-01-27T08:00:18;3.47;;;1.37;;
12122;SDS011;6125;59.628;17.852;2024-01-27T08:02:46;3.83;;;1.40;;
12122;SDS011;6125;59.628;17.852;2024-01-27T08:05:12;4.77;;;1.50;;
12122;SDS011;6125;59.628;17.852;2024-01-27T08:07:40;6.60;;;1.30;;
12122;SDS011;6125;59.628;17.852;2024-01-27T08:10:11;3.83;;;1.73;;
12122;SDS011;6125;59.628;17.852;2024-01-27T08:12:38;4.43;;;1.60;;
12122;SDS011;6125;59.628;17.852;2024-01-27T08:15:07;7.03;;;1.50;;
12122;SDS011;6125;59.628;17.852;2024-01-27T08:17:34;10.67;;;1.57;;
12122;SDS011;6125;59.628;17.852;2024-01-27T08:20:01;6.13;;;1.53;;
12122;SDS011;6125;59.628;17.852;2024-01-27T08:22:28;5.13;;;2.20;;
12122;SDS011;6125;59.628;17.852;2024-01-27T08:24:55;3.20;;;1.17;;
12122;SDS011;6125;59.628;17.852;2024-01-27T08:27:24;1.40;;;1.10;;
12122;SDS011;6125;59.628;17.852;2024-01-27T08:29:51;4.57;;;1.33;;
12122;SDS011;6125;59.628;17.852;2024-01-27T08:32:18;4.87;;;1.60;;
12122;SDS011;6125;59.628;17.852;2024-01-27T08:34:45;2.67;;;1.60;;
12122;SDS011;6125;59.628;17.852;2024-01-27T08:37:17;4.53;;;1.40;;
12122;SDS011;6125;59.628;17.852;2024-01-27T08:39:46;2.17;;;1.50;;
12122;SDS011;6125;59.628;17.852;2024-01-27T08:42:13;8.10;;;1.90;;
12122;SDS011;6125;59.628;17.852;2024-01-27T08:44:41;11.57;;;2.67;;
12122;SDS011;6125;59.628;17.852;2024-01-27T08:47:08;10.10;;;1.83;;
12122;SDS011;6125;59.628;17.852;2024-01-27T08:49:35;4.53;;;1.50;;
12122;SDS011;6125;59.628;17.852;2024-01-27T08:52:02;4.07;;;1.60;;
12122;SDS011;6125;59.628;17.852;2024-01-27T08:54:30;5.60;;;1.50;;
12122;SDS011;6125;59.628;17.852;2024-01-27T08:56:56;4.90;;;1.60;;
12122;SDS011;6125;59.628;17.852;2024-01-27T08:59:23;6.17;;;1.60;;
12122;SDS011;6125;59.628;17.852;2024-01-27T09:01:52;2.57;;;1.20;;
12122;SDS011;6125;59.628;17.852;2024-01-27T09:04:19;7.27;;;1.53;;
12122;SDS011;6125;59.628;17.852;2024-01-27T09:06:46;4.53;;;1.70;;
12122;SDS011;6125;59.628;17.852;2024-01-27T09:09:13;6.70;;;1.70;;
12122;SDS011;6125;59.628;17.852;2024-01-27T09:11:40;5.90;;;1.77;;
12122;SDS011;6125;59.628;17.852;2024-01-27T09:14:07;3.80;;;1.57;;
12122;SDS011;6125;59.628;17.852;2024-01-27T09:16:34;9.17;;;1.93;;
12122;SDS011;6125;59.628;17.852;2024-01-27T09:19:02;6.03;;;1.60;;
12122;SDS011;6125;59.628;17.852;2024-01-27T09:21:29;9.60;;;1.70;;
12122;SDS011;6125;59.628;17.852;2024-01-27T09:23:57;5.80;;;1.60;;
12122;SDS011;6125;59.628;17.852;2024-01-27T09:26:26;6.93;;;1.80;;
12122;SDS011;6125;59.628;17.852;2024-01-27T09:28:53;7.40;;;1.83;;
12122;SDS011;6125;59.628;17.852;2024-01-27T09:31:20;4.77;;;2.03;;
12122;SDS011;6125;59.628;17.852;2024-01-27T09:33:48;5.03;;;1.70;;
12122;SDS011;6125;59.628;17.852;2024-01-27T09:36:18;5.10;;;1.73;;
12122;SDS011;6125;59.628;17.852;2024-01-27T09:38:45;7.20;;;1.43;;
12122;SDS011;6125;59.628;17.852;2024-01-27T09:41:13;2.87;;;1.33;;
12122;SDS011;6125;59.628;17.852;2024-01-27T09:43:42;5.23;;;1.73;;
12122;SDS011;6125;59.628;17.852;2024-01-27T09:46:10;2.50;;;1.30;;
12122;SDS011;6125;59.628;17.852;2024-01-27T09:48:37;3.50;;;1.70;;
12122;SDS011;6125;59.628;17.852;2024-01-27T09:51:04;6.83;;;1.67;;
12122;SDS011;6125;59.628;17.852;2024-01-27T09:53:33;9.30;;;1.80;;
12122;SDS011;6125;59.628;17.852;2024-01-27T09:56:00;5.63;;;2.10;;
12122;SDS011;6125;59.628;17.852;2024-01-27T09:58:29;7.20;;;1.77;;
12122;SDS011;6125;59.628;17.852;2024-01-27T10:00:57;4.37;;;1.23;;
12122;SDS011;6125;59.628;17.852;2024-01-27T10:03:24;5.73;;;1.50;;
12122;SDS011;6125;59.628;17.852;2024-01-27T10:05:53;5.00;;;1.40;;
12122;SDS011;6125;59.628;17.852;2024-01-27T10:08:21;8.17;;;1.43;;
12122;SDS011;6125;59.628;17.852;2024-01-27T10:10:51;5.23;;;1.67;;
12122;SDS011;6125;59.628;17.852;2024-01-27T10:13:21;4.30;;;1.63;;
12122;SDS011;6125;59.628;17.852;2024-01-27T10:15:59;2.63;;;1.40;;
12122;SDS011;6125;59.628;17.852;2024-01-27T10:18:27;5.83;;;2.00;;
12122;SDS011;6125;59.628;17.852;2024-01-27T10:20:54;7.20;;;1.60;;
12122;SDS011;6125;59.628;17.852;2024-01-27T10:23:21;8.20;;;2.43;;
12122;SDS011;6125;59.628;17.852;2024-01-27T10:25:48;6.43;;;2.30;;
12122;SDS011;6125;59.628;17.852;2024-01-27T10:28:19;6.80;;;2.17;;
12122;SDS011;6125;59.628;17.852;2024-01-27T10:30:47;5.60;;;2.10;;
12122;SDS011;6125;59.628;17.852;2024-01-27T10:33:14;4.47;;;1.83;;
12122;SDS011;6125;59.628;17.852;2024-01-27T10:35:42;4.43;;;1.70;;
12122;SDS011;6125;59.628;17.852;2024-01-27T10:38:09;8.03;;;2.10;;
12122;SDS011;6125;59.628;17.852;2024-01-27T10:40:36;4.77;;;1.33;;
12122;SDS011;6125;59.628;17.852;2024-01-27T10:43:05;5.83;;;1.83;;
12122;SDS011;6125;59.628;17.852;2024-01-27T10:45:36;7.27;;;2.20;;
12122;SDS011;6125;59.628;17.852;2024-01-27T10:48:04;3.57;;;1.63;;
12122;SDS011;6125;59.628;17.852;2024-01-27T10:50:34;5.80;;;2.13;;
12122;SDS011;6125;59.628;17.852;2024-01-27T10:53:03;2.20;;;1.40;;
12122;SDS011;6125;59.628;17.852;2024-01-27T10:55:31;2.53;;;1.40;;
12122;SDS011;6125;59.628;17.852;2024-01-27T10:58:01;8.77;;;1.90;;
12122;SDS011;6125;59.628;17.852;2024-01-27T11:00:30;5.83;;;1.77;;
12122;SDS011;6125;59.628;17.852;2024-01-27T11:02:59;6.27;;;2.20;;
12122;SDS011;6125;59.628;17.852;2024-01-27T11:05:30;4.80;;;1.33;;
12122;SDS011;6125;59.628;17.852;2024-01-27T11:08:00;7.07;;;2.07;;
12122;SDS011;6125;59.628;17.852;2024-01-27T11:10:27;3.87;;;1.33;;
12122;SDS011;6125;59.628;17.852;2024-01-27T11:13:01;2.17;;;1.43;;
12122;SDS011;6125;59.628;17.852;2024-01-27T11:15:30;4.93;;;1.53;;
12122;SDS011;6125;59.628;17.852;2024-01-27T11:17:57;6.00;;;1.53;;
12122;SDS011;6125;59.628;17.852;2024-01-27T11:20:25;2.30;;;1.30;;
12122;SDS011;6125;59.628;17.852;2024-01-27T11:22:52;5.37;;;1.47;;
12122;SDS011;6125;59.628;17.852;2024-01-27T11:25:27;4.23;;;1.60;;
12122;SDS011;6125;59.628;17.852;2024-01-27T11:27:54;4.20;;;1.60;;
12122;SDS011;6125;59.628;17.852;2024-01-27T11:30:24;3.37;;;1.23;;
12122;SDS011;6125;59.628;17.852;2024-01-27T11:32:55;4.13;;;1.53;;
12122;SDS011;6125;59.628;17.852;2024-01-27T11:35:23;2.40;;;1.10;;
12122;SDS011;6125;59.628;17.852;2024-01-27T11:37:50;6.57;;;1.70;;
12122;SDS011;6125;59.628;17.852;2024-01-27T11:40:17;9.97;;;1.90;;
12122;SDS011;6125;59.628;17.852;2024-01-27T11:42:53;5.57;;;2.10;;
12122;SDS011;6125;59.628;17.852;2024-01-27T11:45:21;3.53;;;1.20;;
12122;SDS011;6125;59.628;17.852;2024-01-27T11:47:47;5.13;;;1.80;;
12122;SDS011;6125;59.628;17.852;2024-01-27T11:50:17;3.33;;;1.20;;
12122;SDS011;6125;59.628;17.852;2024-01-27T11:52:45;6.37;;;1.73;;
12122;SDS011;6125;59.628;17.852;2024-01-27T11:55:13;5.03;;;1.57;;
12122;SDS011;6125;59.628;17.852;2024-01-27T11:57:40;6.57;;;2.40;;
12122;SDS011;6125;59.628;17.852;2024-01-27T12:00:07;9.33;;;1.90;;
12122;SDS011;6125;59.628;17.852;2024-01-27T12:02:34;4.50;;;2.00;;
12122;SDS011;6125;59.628;17.852;2024-01-27T12:05:01;2.50;;;1.60;;
12122;SDS011;6125;59.628;17.852;2024-01-27T12:07:30;6.83;;;2.40;;
12122;SDS011;6125;59.628;17.852;2024-01-27T12:09:58;4.93;;;1.73;;
12122;SDS011;6125;59.628;17.852;2024-01-27T12:12:25;4.30;;;1.87;;
12122;SDS011;6125;59.628;17.852;2024-01-27T12:14:52;6.67;;;1.70;;
12122;SDS011;6125;59.628;17.852;2024-01-27T12:17:19;4.27;;;1.67;;
12122;SDS011;6125;59.628;17.852;2024-01-27T12:19:47;6.57;;;1.83;;
12122;SDS011;6125;59.628;17.852;2024-01-27T12:22:21;7.80;;;1.77;;
12122;SDS011;6125;59.628;17.852;2024-01-27T12:24:50;5.70;;;1.73;;
12122;SDS011;6125;59.628;17.852;2024-01-27T12:27:17;6.10;;;1.80;;
12122;SDS011;6125;59.628;17.852;2024-01-27T12:29:45;5.30;;;2.17;;
12122;SDS011;6125;59.628;17.852;2024-01-27T12:32:14;7.17;;;2.43;;
12122;SDS011;6125;59.628;17.852;2024-01-27T12:34:41;5.60;;;1.70;;
12122;SDS011;6125;59.628;17.852;2024-01-27T12:37:08;5.03;;;1.70;;
12122;SDS011;6125;59.628;17.852;2024-01-27T12:39:37;6.93;;;1.70;;
12122;SDS011;6125;59.628;17.852;2024-01-27T12:42:08;6.20;;;1.53;;
12122;SDS011;6125;59.628;17.852;2024-01-27T12:44:35;3.70;;;1.70;;
12122;SDS011;6125;59.628;17.852;2024-01-27T12:47:02;5.20;;;2.03;;
12122;SDS011;6125;59.628;17.852;2024-01-27T12:49:29;7.53;;;2.17;;
12122;SDS011;6125;59.628;17.852;2024-01-27T12:51:56;4.50;;;1.90;;
12122;SDS011;6125;59.628;17.852;2024-01-27T12:54:23;7.43;;;1.60;;
12122;SDS011;6125;59.628;17.852;2024-01-27T12:56:50;3.10;;;1.67;;
12122;SDS011;6125;59.628;17.852;2024-01-27T12:59:18;7.70;;;1.70;;
12122;SDS011;6125;59.628;17.852;2024-01-27T13:01:45;9.00;;;2.10;;
12122;SDS011;6125;59.628;17.852;2024-01-27T13:04:12;3.57;;;1.30;;
12122;SDS011;6125;59.628;17.852;2024-01-27T13:06:39;3.53;;;1.60;;
12122;SDS011;6125;59.628;17.852;2024-01-27T13:09:07;7.07;;;1.70;;
12122;SDS011;6125;59.628;17.852;2024-01-27T13:11:36;4.73;;;1.80;;
12122;SDS011;6125;59.628;17.852;2024-01-27T13:14:03;5.80;;;1.70;;
12122;SDS011;6125;59.628;17.852;2024-01-27T13:16:32;7.87;;;1.80;;
12122;SDS011;6125;59.628;17.852;2024-01-27T13:18:59;4.23;;;1.70;;
12122;SDS011;6125;59.628;17.852;2024-01-27T13:21:26;5.67;;;1.50;;
12122;SDS011;6125;59.628;17.852;2024-01-27T13:23:53;6.17;;;1.90;;
12122;SDS011;6125;59.628;17.852;2024-01-27T13:26:20;7.23;;;1.87;;
12122;SDS011;6125;59.628;17.852;2024-01-27T13:28:47;4.67;;;2.10;;
12122;SDS011;6125;59.628;17.852;2024-01-27T13:31:14;4.07;;;1.40;;
12122;SDS011;6125;59.628;17.852;2024-01-27T13:33:43;2.93;;;2.20;;
12122;SDS011;6125;59.628;17.852;2024-01-27T13:36:10;4.87;;;2.07;;
12122;SDS011;6125;59.628;17.852;2024-01-27T13:38:37;5.17;;;1.73;;
12122;SDS011;6125;59.628;17.852;2024-01-27T13:41:05;6.27;;;1.60;;
12122;SDS011;6125;59.628;17.852;2024-01-27T13:43:32;5.63;;;1.70;;
12122;SDS011;6125;59.628;17.852;2024-01-27T13:45:59;3.07;;;1.80;;
12122;SDS011;6125;59.628;17.852;2024-01-27T13:48:26;2.50;;;1.60;;
12122;SDS011;6125;59.628;17.852;2024-01-27T13:50:54;3.87;;;1.70;;
12122;SDS011;6125;59.628;17.852;2024-01-27T13:53:21;7.43;;;1.83;;
12122;SDS011;6125;59.628;17.852;2024-01-27T13:55:48;6.50;;;1.20;;
12122;SDS011;6125;59.628;17.852;2024-01-27T13:58:16;2.93;;;1.23;;
12122;SDS011;6125;59.628;17.852;2024-01-27T14:00:43;3.50;;;1.67;;
12122;SDS011;6125;59.628;17.852;2024-01-27T14:03:10;8.20;;;1.73;;
12122;SDS011;6125;59.628;17.852;2024-01-27T14:05:37;4.90;;;1.80;;
12122;SDS011;6125;59.628;17.852;2024-01-27T14:08:07;5.03;;;1.90;;
12122;SDS011;6125;59.628;17.852;2024-01-27T14:10:35;4.10;;;2.00;;
12122;SDS011;6125;59.628;17.852;2024-01-27T14:13:02;4.00;;;1.40;;
12122;SDS011;6125;59.628;17.852;2024-01-27T14:15:34;4.17;;;1.70;;
12122;SDS011;6125;59.628;17.852;2024-01-27T14:18:01;5.27;;;1.90;;
12122;SDS011;6125;59.628;17.852;2024-01-27T14:20:29;5.00;;;3.20;;
12122;SDS011;6125;59.628;17.852;2024-01-27T14:22:57;8.20;;;3.67;;
12122;SDS011;6125;59.628;17.852;2024-01-27T14:25:26;6.20;;;4.27;;
12122;SDS011;6125;59.628;17.852;2024-01-27T14:27:53;9.93;;;2.37;;
12122;SDS011;6125;59.628;17.852;2024-01-27T14:30:20;4.87;;;2.00;;
12122;SDS011;6125;59.628;17.852;2024-01-27T14:32:48;7.43;;;2.50;;
12122;SDS011;6125;59.628;17.852;2024-01-27T14:35:15;8.33;;;1.80;;
12122;SDS011;6125;59.628;17.852;2024-01-27T14:37:42;5.73;;;1.70;;
12122;SDS011;6125;59.628;17.852;2024-01-27T14:40:16;9.93;;;2.03;;
12122;SDS011;6125;59.628;17.852;2024-01-27T14:42:52;8.37;;;2.00;;
12122;SDS011;6125;59.628;17.852;2024-01-27T14:45:19;3.70;;;1.90;;
12122;SDS011;6125;59.628;17.852;2024-01-27T14:47:46;6.83;;;1.70;;
12122;SDS011;6125;59.628;17.852;2024-01-27T14:50:13;2.63;;;1.77;;